Time;durP1;ratioP1;P1;durP2;ratioP2;P2;SDS_P1;SDS_P2;PMS_P1;PMS_P2;Temp;Humidity;BMP_temperature;BMP_pressure;BME280_temperature;BME280_humidity;BME280_pressure;Samples;Min_cycle;Max_cycle;Signal;HPM_P1;HPM_P2
2021/04/01 00:01:10;;;;;;;18.07;14.00;;;;;;;;;;5056454;28;20232;-60
2021/04/01 00:03:37;;;;;;;14.80;13.20;;;;;;;;;;5056758;28;20213;-59
2021/04/01 00:06:03;;;;;;;15.63;13.00;;;;;;;;;;5056209;28;20447;-60
2021/04/01 00:08:29;;;;;;;17.50;14.80;;;;;;;;;;5056664;28;20456;-59
2021/04/01 00:10:54;;;;;;;17.80;13.80;;;;;;;;;;5056121;28;20506;-59
2021/04/01 00:13:19;;;;;;;15.03;12.93;;;;;;;;;;5056524;28;20217;-59
2021/04/01 00:15:45;;;;;;;17.43;13.40;;;;;;;;;;5056144;28;20228;-59
2021/04/01 00:18:13;;;;;;;16.00;14.17;;;;;;;;;;5050019;28;20233;-60
2021/04/01 00:20:39;;;;;;;14.13;12.50;;;;;;;;;;5036285;28;20287;-60
2021/04/01 00:23:04;;;;;;;15.93;13.17;;;;;;;;;;5036091;28;20531;-60
2021/04/01 00:25:29;;;;;;;14.73;13.20;;;;;;;;;;5038967;28;20228;-59
2021/04/01 00:27:54;;;;;;;15.60;14.03;;;;;;;;;;5055853;28;20241;-60
2021/04/01 00:30:20;;;;;;;17.37;13.30;;;;;;;;;;5056364;28;20255;-59
2021/04/01 00:32:47;;;;;;;15.23;13.40;;;;;;;;;;5055588;28;20554;-59
2021/04/01 00:35:12;;;;;;;17.80;12.53;;;;;;;;;;5056035;28;20800;-60
2021/04/01 00:37:37;;;;;;;18.40;14.13;;;;;;;;;;5055875;28;20470;-60
2021/04/01 00:40:04;;;;;;;16.70;13.33;;;;;;;;;;5055615;28;20229;-59
2021/04/01 00:42:30;;;;;;;20.57;14.93;;;;;;;;;;5055988;28;20241;-59
2021/04/01 00:45:06;;;;;;;15.63;12.70;;;;;;;;;;5055504;28;20564;-59
2021/04/01 00:47:36;;;;;;;15.57;13.40;;;;;;;;;;5056010;28;20213;-60
2021/04/01 00:50:03;;;;;;;14.47;11.93;;;;;;;;;;5055382;28;20605;-59
2021/04/01 00:52:29;;;;;;;17.07;13.43;;;;;;;;;;5055545;28;20467;-59
2021/04/01 00:54:54;;;;;;;15.37;12.13;;;;;;;;;;5055214;28;20460;-60
2021/04/01 00:57:19;;;;;;;15.40;12.47;;;;;;;;;;5055752;28;20957;-59
2021/04/01 00:59:45;;;;;;;14.87;12.97;;;;;;;;;;5055090;28;20259;-58
2021/04/01 01:02:10;;;;;;;15.10;12.70;;;;;;;;;;5054592;28;20661;-58
2021/04/01 01:04:36;;;;;;;16.60;13.53;;;;;;;;;;5054471;28;20236;-59
2021/04/01 01:07:02;;;;;;;15.90;13.37;;;;;;;;;;5055126;28;20298;-60
2021/04/01 01:09:27;;;;;;;15.87;13.10;;;;;;;;;;5055571;28;20303;-60
2021/04/01 01:11:52;;;;;;;17.17;13.80;;;;;;;;;;5055045;28;20241;-59
2021/04/01 01:14:18;;;;;;;15.23;12.10;;;;;;;;;;5055532;28;20213;-60
2021/04/01 01:16:44;;;;;;;15.80;12.30;;;;;;;;;;5053894;28;20577;-60
2021/04/01 01:19:11;;;;;;;15.87;13.50;;;;;;;;;;5054236;28;20224;-60
2021/04/01 01:21:36;;;;;;;14.73;11.70;;;;;;;;;;5055188;28;20460;-60
2021/04/01 01:24:02;;;;;;;14.57;12.07;;;;;;;;;;5054709;28;20793;-59
2021/04/01 01:26:27;;;;;;;16.10;13.23;;;;;;;;;;5055234;28;20564;-59
2021/04/01 01:28:53;;;;;;;16.47;12.63;;;;;;;;;;5054096;28;20293;-59
2021/04/01 01:31:20;;;;;;;17.27;13.40;;;;;;;;;;5054880;28;20221;-59
2021/04/01 01:33:46;;;;;;;18.70;12.13;;;;;;;;;;5054596;28;20271;-59
2021/04/01 01:36:12;;;;;;;17.77;12.00;;;;;;;;;;5054806;28;20460;-59
2021/04/01 01:38:38;;;;;;;16.00;12.93;;;;;;;;;;5054971;28;20537;-59
2021/04/01 01:41:03;;;;;;;15.20;13.37;;;;;;;;;;5054188;28;20533;-59
2021/04/01 01:43:30;;;;;;;15.57;12.93;;;;;;;;;;5054783;28;20245;-59
2021/04/01 01:45:55;;;;;;;15.13;11.63;;;;;;;;;;5054333;28;20217;-59
2021/04/01 01:48:21;;;;;;;17.33;12.90;;;;;;;;;;5054781;28;20470;-59
2021/04/01 01:50:46;;;;;;;16.83;12.37;;;;;;;;;;5054032;28;20233;-61
2021/04/01 01:53:11;;;;;;;15.17;11.70;;;;;;;;;;5054477;28;20305;-60
2021/04/01 01:55:37;;;;;;;14.70;11.27;;;;;;;;;;5054526;28;20236;-60
2021/04/01 01:58:03;;;;;;;16.00;11.83;;;;;;;;;;5054073;28;20304;-60
2021/04/01 02:00:37;;;;;;;17.17;12.03;;;;;;;;;;5053525;28;20594;-60
2021/04/01 02:03:04;;;;;;;17.43;12.67;;;;;;;;;;5053987;28;20884;-60
2021/04/01 02:05:31;;;;;;;22.60;11.70;;;;;;;;;;5054552;28;20857;-60
2021/04/01 02:07:56;;;;;;;14.20;11.13;;;;;;;;;;5054062;28;20459;-60
2021/04/01 02:10:33;;;;;;;15.03;11.50;;;;;;;;;;5054487;28;20464;-60
2021/04/01 02:12:59;;;;;;;14.87;11.90;;;;;;;;;;5053795;28;20224;-59
2021/04/01 02:15:27;;;;;;;16.33;11.90;;;;;;;;;;5054281;28;20466;-59
2021/04/01 02:18:02;;;;;;;21.93;12.87;;;;;;;;;;5053512;28;20619;-59
2021/04/01 02:20:27;;;;;;;14.17;10.70;;;;;;;;;;5053123;28;20458;-60
2021/04/01 02:22:53;;;;;;;18.10;12.33;;;;;;;;;;5053611;28;20470;-60
2021/04/01 02:25:18;;;;;;;18.03;11.40;;;;;;;;;;5054288;28;20656;-59
2021/04/01 02:27:43;;;;;;;14.73;12.63;;;;;;;;;;5054203;28;20467;-59
2021/04/01 02:30:09;;;;;;;15.57;11.27;;;;;;;;;;5053559;28;20651;-58
2021/04/01 02:32:34;;;;;;;15.33;12.00;;;;;;;;;;5053861;28;20262;-58
2021/04/01 02:35:00;;;;;;;18.63;12.83;;;;;;;;;;5053501;28;20649;-59
2021/04/01 02:37:25;;;;;;;13.67;10.83;;;;;;;;;;5053973;28;20333;-58
2021/04/01 02:39:50;;;;;;;13.23;10.87;;;;;;;;;;5053222;28;20657;-60
2021/04/01 02:42:16;;;;;;;15.20;12.77;;;;;;;;;;5053192;28;20224;-59
2021/04/01 02:44:41;;;;;;;14.30;11.30;;;;;;;;;;5052894;28;20308;-59
2021/04/01 02:47:06;;;;;;;17.40;11.77;;;;;;;;;;5053440;28;20599;-59
2021/04/01 02:49:31;;;;;;;16.17;11.60;;;;;;;;;;5053835;28;20238;-59
2021/04/01 02:51:57;;;;;;;14.97;11.63;;;;;;;;;;5053183;28;20232;-59
2021/04/01 02:54:22;;;;;;;14.63;11.73;;;;;;;;;;5053786;28;20226;-59
2021/04/01 02:56:47;;;;;;;18.63;11.37;;;;;;;;;;5053712;28;20316;-59
2021/04/01 02:59:13;;;;;;;16.40;11.50;;;;;;;;;;5052265;28;20220;-59
2021/04/01 03:01:38;;;;;;;14.23;10.80;;;;;;;;;;5053526;28;20217;-59
2021/04/01 03:04:07;;;;;;;19.00;12.07;;;;;;;;;;5053156;28;20228;-59
2021/04/01 03:06:32;;;;;;;14.60;10.50;;;;;;;;;;5053662;28;20575;-59
2021/04/01 03:08:58;;;;;;;16.57;12.50;;;;;;;;;;5052152;28;20528;-59
2021/04/01 03:11:23;;;;;;;13.70;11.80;;;;;;;;;;5052450;28;20545;-59
2021/04/01 03:13:48;;;;;;;17.97;12.07;;;;;;;;;;5053594;28;20220;-59
2021/04/01 03:16:13;;;;;;;15.50;12.67;;;;;;;;;;5053183;28;20667;-60
2021/04/01 03:18:39;;;;;;;14.27;12.03;;;;;;;;;;5043295;28;20390;-60
2021/04/01 03:21:04;;;;;;;15.23;11.73;;;;;;;;;;5032983;28;20226;-60
2021/04/01 03:23:30;;;;;;;15.13;11.50;;;;;;;;;;5033776;28;20784;-60
2021/04/01 03:25:55;;;;;;;14.30;11.23;;;;;;;;;;5039317;28;20274;-60
2021/04/01 03:28:21;;;;;;;17.47;11.13;;;;;;;;;;5053486;28;20211;-59
2021/04/01 03:30:53;;;;;;;15.30;12.87;;;;;;;;;;5053513;28;20295;-59
2021/04/01 03:33:19;;;;;;;20.50;13.30;;;;;;;;;;5053432;28;20228;-59
2021/04/01 03:35:45;;;;;;;16.30;11.20;;;;;;;;;;5053649;28;20468;-59
2021/04/01 03:38:12;;;;;;;16.57;12.00;;;;;;;;;;5053250;28;20306;-59
2021/04/01 03:40:38;;;;;;;16.07;12.70;;;;;;;;;;5053529;28;20239;-60
2021/04/01 03:43:03;;;;;;;13.60;11.10;;;;;;;;;;5052905;28;20467;-60
2021/04/01 03:45:28;;;;;;;14.70;11.60;;;;;;;;;;5053388;28;20649;-59
2021/04/01 03:47:54;;;;;;;18.20;11.90;;;;;;;;;;5053507;28;20291;-59
2021/04/01 03:50:20;;;;;;;14.27;11.80;;;;;;;;;;5052932;28;20215;-59
2021/04/01 03:52:45;;;;;;;18.97;12.47;;;;;;;;;;5055165;28;20455;-59
2021/04/01 03:55:32;;;;;;;14.60;11.47;;;;;;;;;;5056411;28;20217;-59
2021/04/01 03:58:09;;;;;;;17.30;12.03;;;;;;;;;;5056501;28;20209;-59
2021/04/01 04:00:37;;;;;;;18.20;13.00;;;;;;;;;;5056942;28;20455;-59
2021/04/01 04:03:19;;;;;;;15.30;12.07;;;;;;;;;;5055482;28;21017;-59
2021/04/01 04:06:08;;;;;;;15.53;11.80;;;;;;;;;;5056797;28;20454;-59
2021/04/01 04:13:52;;;;;;;17.43;12.43;;;;;;;;;;5056698;28;20925;-59
2021/04/01 04:16:17;;;;;;;16.40;12.00;;;;;;;;;;5056637;28;20463;-59
2021/04/01 04:18:43;;;;;;;14.43;11.93;;;;;;;;;;5045253;28;20459;-59
2021/04/01 04:21:09;;;;;;;18.03;13.23;;;;;;;;;;5036390;28;20301;-59
2021/04/01 04:23:36;;;;;;;14.23;11.83;;;;;;;;;;5036070;28;20467;-59
2021/04/01 04:26:02;;;;;;;15.00;12.50;;;;;;;;;;5043547;28;20689;-59
2021/04/01 04:28:37;;;;;;;19.13;12.70;;;;;;;;;;5055877;28;20467;-59
2021/04/01 04:31:04;;;;;;;16.67;11.77;;;;;;;;;;5055513;28;20281;-59
2021/04/01 04:33:29;;;;;;;17.87;11.73;;;;;;;;;;5054841;28;20959;-59
2021/04/01 04:35:55;;;;;;;15.90;12.47;;;;;;;;;;5056072;28;20465;-59
2021/04/01 04:38:21;;;;;;;15.80;12.47;;;;;;;;;;5055687;28;20302;-59
2021/04/01 04:40:46;;;;;;;16.70;12.30;;;;;;;;;;5056062;28;20266;-59
2021/04/01 04:43:12;;;;;;;15.97;12.27;;;;;;;;;;5056072;28;20215;-58
2021/04/01 04:45:37;;;;;;;20.03;13.50;;;;;;;;;;5055454;28;20247;-58
2021/04/01 04:48:02;;;;;;;17.60;12.97;;;;;;;;;;5056212;28;20221;-59
2021/04/01 04:50:28;;;;;;;17.50;12.90;;;;;;;;;;5055295;28;20239;-59
2021/04/01 04:52:53;;;;;;;16.57;12.47;;;;;;;;;;5055988;28;20297;-59
2021/04/01 04:55:19;;;;;;;17.13;13.57;;;;;;;;;;5055763;28;20314;-59
2021/04/01 04:57:48;;;;;;;13.83;12.37;;;;;;;;;;5055493;28;20217;-59
2021/04/01 05:05:25;;;;;;;14.70;12.10;;;;;;;;;;5054788;28;20456;-59
2021/04/01 05:07:51;;;;;;;15.37;12.80;;;;;;;;;;5055623;28;20795;-59
2021/04/01 05:10:16;;;;;;;17.47;13.17;;;;;;;;;;5055619;28;20225;-59
2021/04/01 05:12:41;;;;;;;15.60;12.10;;;;;;;;;;5055143;28;20556;-58
2021/04/01 05:15:07;;;;;;;17.87;11.57;;;;;;;;;;5055499;28;20224;-58
2021/04/01 05:17:32;;;;;;;19.13;12.63;;;;;;;;;;5054811;28;20306;-59
2021/04/01 05:20:02;;;;;;;15.00;11.90;;;;;;;;;;5055267;28;20463;-59
2021/04/01 05:22:46;;;;;;;15.97;11.60;;;;;;;;;;5054599;28;20258;-59
2021/04/01 05:25:13;;;;;;;14.47;12.37;;;;;;;;;;5053463;28;20536;-59
2021/04/01 05:27:46;;;;;;;17.60;12.90;;;;;;;;;;5046002;28;20466;-59
2021/04/01 05:30:11;;;;;;;18.97;13.50;;;;;;;;;;5054852;28;20451;-59
2021/04/01 05:32:40;;;;;;;15.20;13.07;;;;;;;;;;5054591;28;20529;-60
2021/04/01 05:35:08;;;;;;;17.97;13.90;;;;;;;;;;5035064;28;20214;-59
2021/04/01 05:37:34;;;;;;;16.57;12.47;;;;;;;;;;5034653;28;20864;-59
2021/04/01 05:40:00;;;;;;;16.57;12.80;;;;;;;;;;5034944;28;20580;-59
2021/04/01 05:42:29;;;;;;;19.00;13.37;;;;;;;;;;5044289;28;20235;-59
2021/04/01 05:45:13;;;;;;;20.90;13.87;;;;;;;;;;5054859;28;20542;-59
2021/04/01 05:50:18;;;;;;;25.30;14.03;;;;;;;;;;5053810;28;20538;-58
2021/04/01 05:53:40;;;;;;;18.10;14.23;;;;;;;;;;5054058;28;20273;-59
2021/04/01 05:58:20;;;;;;;16.50;13.23;;;;;;;;;;5054638;28;20473;-59
2021/04/01 06:01:09;;;;;;;14.20;12.40;;;;;;;;;;5034119;28;20893;-59
2021/04/01 06:04:11;;;;;;;23.53;13.73;;;;;;;;;;5034106;28;20852;-59
2021/04/01 06:06:45;;;;;;;20.20;12.73;;;;;;;;;;5033975;28;20465;-59
2021/04/01 06:09:24;;;;;;;25.83;13.43;;;;;;;;;;5034491;28;20533;-59
2021/04/01 06:11:53;;;;;;;16.13;12.37;;;;;;;;;;5048653;28;20456;-59
2021/04/01 06:14:33;;;;;;;19.60;13.73;;;;;;;;;;5034340;28;20534;-59
2021/04/01 06:17:05;;;;;;;16.93;12.50;;;;;;;;;;5033205;28;20445;-59
2021/04/01 06:19:32;;;;;;;20.30;13.97;;;;;;;;;;5051450;28;20524;-59
2021/04/01 06:22:02;;;;;;;18.43;15.73;;;;;;;;;;5053631;28;20521;-60
2021/04/01 06:24:29;;;;;;;17.70;12.77;;;;;;;;;;5054422;28;20483;-60
2021/04/01 06:27:02;;;;;;;21.70;14.87;;;;;;;;;;5053729;28;20617;-60
2021/04/01 06:29:30;;;;;;;17.50;14.23;;;;;;;;;;5054090;28;20455;-59
2021/04/01 06:32:00;;;;;;;15.07;12.10;;;;;;;;;;5053526;28;20906;-59
2021/04/01 06:34:43;;;;;;;16.00;12.30;;;;;;;;;;5054016;28;20459;-60
2021/04/01 06:40:07;;;;;;;26.50;13.77;;;;;;;;;;5053286;28;20458;-60
2021/04/01 06:42:37;;;;;;;18.63;13.10;;;;;;;;;;5053601;28;20479;-60
2021/04/01 06:45:05;;;;;;;18.60;12.93;;;;;;;;;;5052625;28;20462;-61
2021/04/01 06:47:33;;;;;;;17.87;12.47;;;;;;;;;;5052856;28;20465;-60
2021/04/01 06:52:51;;;;;;;17.87;13.47;;;;;;;;;;5053478;28;20467;-59
2021/04/01 06:55:27;;;;;;;15.50;12.63;;;;;;;;;;5053224;28;20852;-59
2021/04/01 06:58:06;;;;;;;23.23;13.80;;;;;;;;;;5052347;28;20852;-61
2021/04/01 07:00:48;;;;;;;21.90;13.37;;;;;;;;;;5041990;28;20497;-59
2021/04/01 07:03:27;;;;;;;20.33;13.00;;;;;;;;;;5032455;28;20459;-59
2021/04/01 07:06:06;;;;;;;16.70;14.13;;;;;;;;;;5033845;28;20987;-61
2021/04/01 07:11:33;;;;;;;19.20;14.10;;;;;;;;;;5053205;28;20520;-60
2021/04/01 07:14:05;;;;;;;21.73;13.70;;;;;;;;;;5053033;28;20529;-60
2021/04/01 07:31:50;;;;;;;19.57;14.80;;;;;;;;;;5057203;28;20466;-61
2021/04/01 07:48:06;;;;;;;19.77;16.10;;;;;;;;;;5035416;28;20446;-60
2021/04/01 07:50:40;;;;;;;19.30;16.47;;;;;;;;;;5036085;28;20465;-60
2021/04/01 07:53:06;;;;;;;23.53;16.67;;;;;;;;;;5036657;28;20452;-60
2021/04/01 07:55:57;;;;;;;23.50;16.90;;;;;;;;;;5043106;28;20470;-59
2021/04/01 07:58:49;;;;;;;22.23;16.93;;;;;;;;;;5056520;28;20232;-60
2021/04/01 08:03:56;;;;;;;22.17;17.43;;;;;;;;;;5056607;28;20943;-61
2021/04/01 08:06:24;;;;;;;22.23;15.87;;;;;;;;;;5056219;28;20467;-61
2021/04/01 08:08:51;;;;;;;19.23;16.33;;;;;;;;;;5056736;28;20761;-59
2021/04/01 08:11:36;;;;;;;21.83;14.80;;;;;;;;;;5055737;28;20547;-60
2021/04/01 08:14:08;;;;;;;23.80;16.60;;;;;;;;;;5053470;28;20456;-60
2021/04/01 08:16:40;;;;;;;24.37;16.83;;;;;;;;;;5056134;28;20478;-60
2021/04/01 08:19:07;;;;;;;21.80;17.90;;;;;;;;;;5056391;28;20597;-59
2021/04/01 08:21:34;;;;;;;25.37;18.97;;;;;;;;;;5055780;28;20455;-61
2021/04/01 08:24:07;;;;;;;28.13;16.47;;;;;;;;;;5054878;28;20459;-60
2021/04/01 08:36:52;;;;;;;30.63;20.00;;;;;;;;;;5055788;28;20286;-61
2021/04/01 08:39:20;;;;;;;25.43;18.57;;;;;;;;;;5054963;28;20598;-61
2021/04/01 08:42:07;;;;;;;30.40;20.20;;;;;;;;;;5055866;28;20543;-60
2021/04/01 08:44:48;;;;;;;28.63;20.63;;;;;;;;;;5055450;28;20514;-60
2021/04/01 08:47:35;;;;;;;25.23;19.13;;;;;;;;;;5055088;28;20848;-61
2021/04/01 08:50:47;;;;;;;26.73;20.30;;;;;;;;;;5054878;28;20451;-60
2021/04/01 08:53:29;;;;;;;26.00;20.03;;;;;;;;;;4997441;28;20841;-61
2021/04/01 08:56:14;;;;;;;24.00;19.50;;;;;;;;;;5054869;28;20486;-61
2021/04/01 08:58:48;;;;;;;31.10;21.17;;;;;;;;;;5055223;28;20478;-61
2021/04/01 09:01:15;;;;;;;33.80;21.07;;;;;;;;;;5054843;28;20477;-63
2021/04/01 09:03:43;;;;;;;28.00;20.43;;;;;;;;;;5054893;28;20764;-62
2021/04/01 09:06:10;;;;;;;30.00;21.20;;;;;;;;;;5054459;28;20521;-62
2021/04/01 09:08:39;;;;;;;27.80;20.40;;;;;;;;;;5055628;28;20931;-61
2021/04/01 09:11:05;;;;;;;29.93;21.67;;;;;;;;;;5055306;28;20468;-63
2021/04/01 09:13:32;;;;;;;27.17;21.00;;;;;;;;;;5054501;28;20491;-63
2021/04/01 09:16:09;;;;;;;34.53;21.07;;;;;;;;;;5054887;28;20490;-62
2021/04/01 09:18:36;;;;;;;29.00;21.63;;;;;;;;;;5055355;28;20467;-62
2021/04/01 09:21:03;;;;;;;31.67;22.27;;;;;;;;;;5054616;28;20547;-62
2021/04/01 09:23:37;;;;;;;23.90;21.10;;;;;;;;;;5055103;28;20456;-62
2021/04/01 09:26:04;;;;;;;30.17;23.40;;;;;;;;;;5054644;28;20450;-62
2021/04/01 09:28:33;;;;;;;26.17;21.00;;;;;;;;;;5055187;28;20455;-62
2021/04/01 09:31:01;;;;;;;31.00;22.00;;;;;;;;;;5054501;28;20454;-62
2021/04/01 09:33:29;;;;;;;29.03;22.87;;;;;;;;;;5054981;28;20456;-62
2021/04/01 09:36:05;;;;;;;33.90;21.87;;;;;;;;;;5054466;28;20512;-62
2021/04/01 09:38:36;;;;;;;28.33;24.63;;;;;;;;;;5055036;28;20478;-62
2021/04/01 09:41:01;;;;;;;29.93;22.40;;;;;;;;;;5054241;28;20549;-62
2021/04/01 09:43:26;;;;;;;30.93;24.57;;;;;;;;;;5053821;28;20452;-63
2021/04/01 09:45:58;;;;;;;36.07;24.50;;;;;;;;;;5054550;28;20221;-62
2021/04/01 09:48:31;;;;;;;34.13;24.30;;;;;;;;;;5054077;28;20359;-63
2021/04/01 09:51:00;;;;;;;33.00;24.10;;;;;;;;;;5053994;28;20964;-62
2021/04/01 09:53:27;;;;;;;32.60;24.13;;;;;;;;;;5054681;28;20455;-63
2021/04/01 09:55:54;;;;;;;35.33;24.73;;;;;;;;;;5054260;28;20471;-63
2021/04/01 09:58:21;;;;;;;31.93;21.97;;;;;;;;;;5054593;28;20539;-62
2021/04/01 10:01:33;;;;;;;27.07;22.13;;;;;;;;;;5054018;28;20491;-62
2021/04/01 10:03:45;;;;;;;36.00;25.83;;;;;;;;;;5051328;28;20460;-62
2021/04/01 10:06:22;;;;;;;30.97;23.80;;;;;;;;;;5054269;28;20467;-61
2021/04/01 10:08:48;;;;;;;32.63;23.53;;;;;;;;;;5053106;28;20512;-63
2021/04/01 10:11:13;;;;;;;29.77;22.53;;;;;;;;;;5053376;28;20555;-63
2021/04/01 10:13:38;;;;;;;29.03;23.70;;;;;;;;;;5054467;28;20565;-62
2021/04/01 10:16:20;;;;;;;28.70;22.33;;;;;;;;;;5054028;28;20209;-62
2021/04/01 10:18:46;;;;;;;34.13;24.27;;;;;;;;;;5054087;28;20213;-63
2021/04/01 10:21:12;;;;;;;26.30;21.03;;;;;;;;;;5053248;28;20982;-62
2021/04/01 10:23:49;;;;;;;31.47;24.20;;;;;;;;;;5054002;28;20456;-62
2021/04/01 10:26:16;;;;;;;31.10;22.33;;;;;;;;;;5053741;28;20451;-62
2021/04/01 10:28:58;;;;;;;32.77;24.10;;;;;;;;;;5054060;28;20484;-62
2021/04/01 10:31:23;;;;;;;34.80;21.87;;;;;;;;;;5053740;28;21429;-63
2021/04/01 10:33:53;;;;;;;31.00;24.20;;;;;;;;;;5054014;28;20467;-63
2021/04/01 10:36:26;;;;;;;32.63;25.07;;;;;;;;;;5053500;28;20580;-62
2021/04/01 10:38:52;;;;;;;32.80;23.93;;;;;;;;;;5053087;28;20459;-62
2021/04/01 10:41:18;;;;;;;32.90;25.37;;;;;;;;;;5053370;28;20470;-62
2021/04/01 10:43:44;;;;;;;36.53;27.37;;;;;;;;;;5053069;28;20456;-62
2021/04/01 10:46:15;;;;;;;36.80;25.40;;;;;;;;;;5053476;28;20459;-62
2021/04/01 10:48:45;;;;;;;36.30;24.97;;;;;;;;;;5053932;28;20532;-62
2021/04/01 10:51:11;;;;;;;36.60;25.50;;;;;;;;;;5052976;28;20513;-63
2021/04/01 10:53:41;;;;;;;36.40;26.07;;;;;;;;;;5053760;28;20773;-63
2021/04/01 10:56:08;;;;;;;32.30;25.10;;;;;;;;;;5053287;28;20217;-62
2021/04/01 10:58:35;;;;;;;37.93;25.10;;;;;;;;;;5053781;28;20775;-63
2021/04/01 11:01:02;;;;;;;31.13;25.63;;;;;;;;;;5052924;28;20463;-62
2021/04/01 11:03:31;;;;;;;32.60;25.70;;;;;;;;;;5056987;28;20454;-63
2021/04/01 11:05:57;;;;;;;35.77;25.70;;;;;;;;;;5057788;28;20456;-62
2021/04/01 11:08:23;;;;;;;32.10;23.80;;;;;;;;;;5057369;28;20447;-62
2021/04/01 11:11:00;;;;;;;29.40;23.40;;;;;;;;;;5057490;28;20456;-62
2021/04/01 11:13:36;;;;;;;36.67;23.50;;;;;;;;;;5057312;28;20451;-63
2021/04/01 11:16:07;;;;;;;32.60;26.17;;;;;;;;;;5057171;28;20455;-62
2021/04/01 11:18:37;;;;;;;36.20;25.50;;;;;;;;;;5057593;28;20475;-63
2021/04/01 11:21:06;;;;;;;35.37;26.80;;;;;;;;;;5055974;28;20486;-60
2021/04/01 11:23:32;;;;;;;36.60;26.93;;;;;;;;;;5057255;28;20547;-63
2021/04/01 11:25:59;;;;;;;35.43;26.30;;;;;;;;;;5056660;28;20879;-62
2021/04/01 11:28:34;;;;;;;33.17;25.57;;;;;;;;;;5043600;28;20527;-63
2021/04/01 11:31:00;;;;;;;35.67;25.37;;;;;;;;;;5056840;28;20459;-62
2021/04/01 11:33:27;;;;;;;31.37;24.07;;;;;;;;;;5056355;28;20470;-62
2021/04/01 11:36:04;;;;;;;31.23;21.77;;;;;;;;;;5056403;28;20209;-63
2021/04/01 11:38:37;;;;;;;33.90;24.93;;;;;;;;;;5056888;28;20904;-62
2021/04/01 11:41:04;;;;;;;31.60;23.40;;;;;;;;;;5056875;28;20464;-62
2021/04/01 11:43:31;;;;;;;31.17;22.10;;;;;;;;;;5056543;28;20448;-61
2021/04/01 11:45:58;;;;;;;32.37;24.30;;;;;;;;;;5057034;28;20456;-63
2021/04/01 11:48:24;;;;;;;33.57;23.77;;;;;;;;;;5055655;28;20466;-63
2021/04/01 11:50:50;;;;;;;35.30;26.07;;;;;;;;;;5056771;28;20491;-62
2021/04/01 11:53:16;;;;;;;34.73;25.20;;;;;;;;;;5055503;28;20517;-62
2021/04/01 11:55:52;;;;;;;34.07;24.77;;;;;;;;;;5068158;28;20479;-62
2021/04/01 11:58:18;;;;;;;38.57;27.50;;;;;;;;;;5056521;28;20213;-62
2021/04/01 12:00:45;;;;;;;36.47;24.80;;;;;;;;;;5056746;28;20596;-62
2021/04/01 12:03:18;;;;;;;38.23;26.17;;;;;;;;;;5055321;28;20451;-62
2021/04/01 12:05:46;;;;;;;37.50;26.93;;;;;;;;;;5055841;28;20447;-62
2021/04/01 12:08:11;;;;;;;34.60;24.07;;;;;;;;;;5056394;28;20770;-62
2021/04/01 12:10:37;;;;;;;32.70;25.90;;;;;;;;;;5056066;28;20430;-62
2021/04/01 12:13:03;;;;;;;40.20;27.13;;;;;;;;;;5056476;28;20469;-62
2021/04/01 12:15:35;;;;;;;41.37;28.33;;;;;;;;;;5056092;28;20616;-62
2021/04/01 12:18:05;;;;;;;35.00;25.07;;;;;;;;;;5056515;28;20212;-62
2021/04/01 12:20:34;;;;;;;38.07;27.40;;;;;;;;;;5056062;28;20923;-62
2021/04/01 12:23:16;;;;;;;39.17;26.53;;;;;;;;;;5056292;28;20463;-62
2021/04/01 12:25:43;;;;;;;39.77;26.00;;;;;;;;;;5055986;28;20507;-62
2021/04/01 12:28:17;;;;;;;35.60;24.70;;;;;;;;;;5056630;28;20763;-63
2021/04/01 12:30:44;;;;;;;37.83;24.70;;;;;;;;;;5056169;28;20435;-63
2021/04/01 12:33:12;;;;;;;38.70;27.30;;;;;;;;;;5056065;28;20801;-63
2021/04/01 12:35:52;;;;;;;34.27;24.93;;;;;;;;;;5055751;28;20828;-62
2021/04/01 12:38:32;;;;;;;37.57;23.83;;;;;;;;;;5055249;28;20456;-62
2021/04/01 12:41:02;;;;;;;31.83;21.77;;;;;;;;;;5055775;28;20451;-62
2021/04/01 12:43:36;;;;;;;30.07;22.30;;;;;;;;;;5054674;28;20462;-63
2021/04/01 12:46:02;;;;;;;32.27;23.77;;;;;;;;;;5056097;28;20483;-63
2021/04/01 12:48:38;;;;;;;33.37;24.17;;;;;;;;;;5054463;28;20444;-63
2021/04/01 12:51:04;;;;;;;32.13;24.10;;;;;;;;;;5055857;28;20263;-64
2021/04/01 12:53:29;;;;;;;28.10;24.63;;;;;;;;;;5055481;28;20460;-63
2021/04/01 16:33:15;;;;;;;33.57;19.33;;;;;;;;;;5060061;27;20568;-62
2021/04/01 16:35:41;;;;;;;23.57;17.13;;;;;;;;;;5053793;28;20477;-62
2021/04/01 16:38:08;;;;;;;24.83;17.57;;;;;;;;;;5083969;28;20463;-61
2021/04/01 16:40:33;;;;;;;18.50;15.03;;;;;;;;;;5054418;28;20314;-61
2021/04/01 16:42:58;;;;;;;19.43;15.30;;;;;;;;;;5051009;28;20885;-62
2021/04/01 16:45:24;;;;;;;22.93;16.37;;;;;;;;;;5051049;28;20218;-61
2021/04/01 16:47:50;;;;;;;18.13;14.37;;;;;;;;;;5051408;28;20296;-62
2021/04/01 16:50:18;;;;;;;17.63;12.87;;;;;;;;;;5053404;28;20229;-62
2021/04/01 16:53:03;;;;;;;17.50;12.83;;;;;;;;;;5050360;28;20470;-62
2021/04/01 16:55:34;;;;;;;16.00;11.60;;;;;;;;;;5051040;28;20465;-61
2021/04/01 16:58:00;;;;;;;16.80;12.13;;;;;;;;;;5050953;28;20463;-62
2021/04/01 17:00:27;;;;;;;14.53;12.00;;;;;;;;;;5050762;28;20469;-62
2021/04/01 17:02:52;;;;;;;12.10;9.70;;;;;;;;;;5050613;28;20230;-62
2021/04/01 17:05:18;;;;;;;10.97;9.80;;;;;;;;;;5054001;28;20468;-61
2021/04/01 17:07:43;;;;;;;16.30;11.43;;;;;;;;;;5050030;28;20230;-60
2021/04/01 17:10:09;;;;;;;12.10;8.67;;;;;;;;;;5050727;28;20315;-60
2021/04/01 17:12:35;;;;;;;14.03;9.97;;;;;;;;;;5050355;28;20299;-60
2021/04/01 17:15:00;;;;;;;13.93;9.37;;;;;;;;;;5046558;28;20234;-60
2021/04/01 17:17:27;;;;;;;13.70;9.60;;;;;;;;;;5038126;28;20531;-61
2021/04/01 17:19:53;;;;;;;10.63;9.40;;;;;;;;;;5031483;28;20216;-60
2021/04/01 17:22:18;;;;;;;11.20;8.37;;;;;;;;;;5045126;28;20495;-60
2021/04/01 17:24:43;;;;;;;12.43;8.87;;;;;;;;;;5046796;28;20220;-60
2021/04/01 17:27:09;;;;;;;12.70;9.53;;;;;;;;;;5050299;28;20230;-61
2021/04/01 17:29:34;;;;;;;10.83;8.67;;;;;;;;;;5050160;28;20217;-60
2021/04/01 17:31:59;;;;;;;9.47;8.23;;;;;;;;;;5049054;28;20312;-59
2021/04/01 17:34:25;;;;;;;11.03;9.13;;;;;;;;;;5050263;28;20229;-60
2021/04/01 17:36:51;;;;;;;11.60;8.80;;;;;;;;;;5049806;28;20343;-60
2021/04/01 17:39:16;;;;;;;8.37;7.47;;;;;;;;;;5045501;28;20464;-60
2021/04/01 17:41:41;;;;;;;11.67;8.73;;;;;;;;;;5049356;28;20291;-60
2021/04/01 17:44:54;;;;;;;10.80;8.30;;;;;;;;;;5071439;27;20574;-60
2021/04/01 17:47:19;;;;;;;7.50;6.70;;;;;;;;;;5061205;28;20475;-60
2021/04/01 17:49:44;;;;;;;9.00;7.70;;;;;;;;;;5036652;28;20766;-61
2021/04/01 17:52:10;;;;;;;8.97;8.07;;;;;;;;;;5029315;28;20218;-61
2021/04/01 17:54:35;;;;;;;10.90;8.40;;;;;;;;;;5029424;28;20221;-60
2021/04/01 17:57:01;;;;;;;8.83;7.70;;;;;;;;;;5035468;28;20212;-61
2021/04/01 17:59:46;;;;;;;9.40;8.33;;;;;;;;;;5049598;28;20332;-61
2021/04/01 18:02:12;;;;;;;9.53;7.23;;;;;;;;;;5050526;28;20209;-60
2021/04/01 18:04:46;;;;;;;10.00;7.90;;;;;;;;;;5050724;28;20476;-61
2021/04/01 18:26:16;;;;;;;8.53;7.33;;;;;;;;;;5030854;28;20482;-61
2021/04/01 18:28:47;;;;;;;9.80;7.20;;;;;;;;;;5030225;28;20466;-61
2021/04/01 18:31:33;;;;;;;9.10;8.00;;;;;;;;;;5037140;28;20793;-61
2021/04/01 18:34:04;;;;;;;7.83;7.00;;;;;;;;;;5050002;28;20536;-61
2021/04/01 18:39:18;;;;;;;9.53;8.30;;;;;;;;;;5050265;28;20447;-60
2021/04/01 18:44:09;;;;;;;8.80;7.00;;;;;;;;;;5036504;28;20539;-61
2021/04/01 18:47:02;;;;;;;7.23;6.53;;;;;;;;;;5030473;28;20297;-61
2021/04/01 18:49:32;;;;;;;8.80;7.90;;;;;;;;;;5029956;28;20788;-60
2021/04/01 18:52:04;;;;;;;8.50;7.37;;;;;;;;;;5029037;28;20453;-61
2021/04/01 18:54:32;;;;;;;7.57;6.87;;;;;;;;;;5026203;28;20468;-61
2021/04/01 18:57:06;;;;;;;7.83;7.03;;;;;;;;;;5022000;28;20465;-62
2021/04/01 18:59:34;;;;;;;7.23;6.53;;;;;;;;;;5036280;28;21060;-61
2021/04/01 19:02:05;;;;;;;8.23;7.30;;;;;;;;;;5016801;28;20469;-61
2021/04/01 19:04:34;;;;;;;7.67;6.70;;;;;;;;;;5015591;28;20773;-61
2021/04/01 19:07:16;;;;;;;6.97;6.30;;;;;;;;;;5016770;28;20955;-60
2021/04/01 19:09:53;;;;;;;8.33;7.50;;;;;;;;;;5016440;28;20770;-60
2021/04/01 19:13:31;;;;;;;11.43;10.27;;;;;;;;;;5016707;28;20819;-60
2021/04/01 19:21:39;;;;;;;14.23;12.47;;;;;;;;;;5015871;28;20470;-61
2021/04/01 19:24:09;;;;;;;14.27;11.10;;;;;;;;;;5030558;28;20765;-61
2021/04/01 19:26:34;;;;;;;14.37;11.43;;;;;;;;;;5016155;28;20474;-60
2021/04/01 19:28:59;;;;;;;15.27;10.00;;;;;;;;;;5015391;28;20928;-61
2021/04/01 19:31:25;;;;;;;12.90;9.77;;;;;;;;;;5023092;28;20229;-61
2021/04/01 19:33:50;;;;;;;12.50;10.30;;;;;;;;;;5035285;28;20232;-60
2021/04/01 19:36:16;;;;;;;14.03;10.43;;;;;;;;;;5035198;28;20670;-61
2021/04/01 19:38:42;;;;;;;12.17;9.23;;;;;;;;;;5034595;28;20555;-60
2021/04/01 19:41:09;;;;;;;15.27;9.40;;;;;;;;;;5035857;28;20779;-61
2021/04/01 19:43:35;;;;;;;14.17;10.07;;;;;;;;;;5035217;28;20277;-60
2021/04/01 19:46:00;;;;;;;13.10;10.17;;;;;;;;;;5035964;28;20426;-61